Time;durP1;ratioP1;P1;durP2;ratioP2;P2;SDS_P1;SDS_P2;PMS_P1;PMS_P2;Temp;Humidity;BMP_temperature;BMP_pressure;BME280_temperature;BME280_humidity;BME280_pressure;Samples;Min_cycle;Max_cycle;Signal;HPM_P1;HPM_P2
2021/08/17 00:00:13;;;;;;;;;;;;;;;19.28;80.78;99077.55;126851;1088;102980;-81
2021/08/17 00:03:05;;;;;;;;;;;;;;;19.27;80.70;99076.70;126680;1088;102861;-81
2021/08/17 00:05:53;;;;;;;;;;;;;;;19.25;80.72;99078.65;126824;1090;102935;-81
2021/08/17 00:08:44;;;;;;;;;;;;;;;19.22;80.61;99070.16;126683;1089;103013;-81
2021/08/17 00:11:32;;;;;;;;;;;;;;;19.22;80.85;99083.38;126627;1090;102110;-81
2021/08/17 00:14:19;;;;;;;;;;;;;;;19.20;80.67;99078.19;126704;1090;102856;-81
2021/08/17 00:17:09;;;;;;;;;;;;;;;19.13;80.63;99087.63;126708;1089;102889;-81
2021/08/17 00:19:57;;;;;;;;;;;;;;;19.09;80.75;99086.22;126648;1090;102664;-81
2021/08/17 00:22:48;;;;;;;;;;;;;;;19.06;80.76;99098.86;126846;1090;102852;-81
2021/08/17 00:25:42;;;;;;;;;;;;;;;19.05;80.88;99097.19;126716;1090;102900;-81
2021/08/17 00:28:31;;;;;;;;;;;;;;;19.02;81.12;99087.69;126823;1090;102873;-80
2021/08/17 00:31:18;;;;;;;;;;;;;;;19.01;81.20;99078.09;126678;1090;102915;-80
2021/08/17 00:34:05;;;;;;;;;;;;;;;19.04;81.32;99077.86;126831;1088;102942;-80
2021/08/17 00:36:53;;;;;;;;;;;;;;;19.09;81.16;99083.58;126818;1087;102852;-81
2021/08/17 00:39:41;;;;;;;;;;;;;;;19.06;80.87;99097.06;126767;1087;101267;-80
2021/08/17 00:42:32;;;;;;;;;;;;;;;19.04;81.21;99090.23;126781;1089;102847;-80
2021/08/17 00:45:21;;;;;;;;;;;;;;;19.08;81.50;99099.57;126652;1089;102955;-81
2021/08/17 00:48:08;;;;;;;;;;;;;;;19.12;81.66;99085.95;126784;1087;102879;-81
2021/08/17 00:50:58;;;;;;;;;;;;;;;19.13;81.47;99105.29;126741;1089;102862;-81
2021/08/17 00:53:46;;;;;;;;;;;;;;;19.05;81.00;99107.77;126781;1087;102880;-81
2021/08/17 00:56:33;;;;;;;;;;;;;;;18.94;81.11;99109.50;126692;1088;102891;-81
2021/08/17 00:59:21;;;;;;;;;;;;;;;18.90;81.46;99115.18;126750;1089;103403;-81
2021/08/17 01:02:08;;;;;;;;;;;;;;;18.86;81.49;99116.41;126639;1090;101853;-81
2021/08/17 01:04:56;;;;;;;;;;;;;;;18.85;81.45;99134.06;126826;1088;102873;-81
2021/08/17 01:07:44;;;;;;;;;;;;;;;18.80;81.69;99130.11;126683;1087;103022;-81
2021/08/17 01:10:31;;;;;;;;;;;;;;;18.79;81.79;99131.08;126779;1088;102930;-81
2021/08/17 01:13:23;;;;;;;;;;;;;;;18.80;81.53;99132.75;126791;1087;103185;-81
2021/08/17 01:16:10;;;;;;;;;;;;;;;18.83;81.52;99114.00;126933;1087;102868;-81
2021/08/17 01:19:01;;;;;;;;;;;;;;;18.82;81.30;99107.05;126746;1087;102941;-81
2021/08/17 01:21:49;;;;;;;;;;;;;;;18.84;81.54;99099.83;126760;1088;102924;-81
2021/08/17 01:24:36;;;;;;;;;;;;;;;18.87;81.26;99096.95;126809;1089;102851;-81
2021/08/17 01:27:25;;;;;;;;;;;;;;;18.89;81.07;99087.09;126703;1089;102930;-81
2021/08/17 01:30:14;;;;;;;;;;;;;;;18.94;81.21;99085.72;126819;1089;102853;-81
2021/08/17 01:33:02;;;;;;;;;;;;;;;18.93;80.77;99088.49;126694;1089;103316;-81
2021/08/17 01:35:49;;;;;;;;;;;;;;;18.96;81.01;99096.16;126823;1089;102881;-81
2021/08/17 01:38:47;;;;;;;;;;;;;;;18.97;80.48;99111.04;126702;1087;102961;-81
2021/08/17 01:41:35;;;;;;;;;;;;;;;18.99;80.67;99120.50;126785;1089;102864;-81
2021/08/17 01:44:22;;;;;;;;;;;;;;;18.98;80.29;99134.69;126757;1088;103022;-81
2021/08/17 01:47:10;;;;;;;;;;;;;;;18.90;80.09;99152.16;126796;1088;102858;-81
2021/08/17 01:50:01;;;;;;;;;;;;;;;18.90;80.38;99162.73;126722;1090;103441;-81
2021/08/17 01:52:49;;;;;;;;;;;;;;;18.82;80.40;99170.45;126833;1088;101373;-81
2021/08/17 01:55:36;;;;;;;;;;;;;;;18.75;80.47;99164.84;126789;1088;101893;-81
2021/08/17 01:58:24;;;;;;;;;;;;;;;18.74;80.25;99151.77;126693;1089;101245;-81
2021/08/17 02:01:13;;;;;;;;;;;;;;;18.70;80.57;99157.31;126774;1090;102889;-81
2021/08/17 02:04:01;;;;;;;;;;;;;;;18.60;80.44;99148.42;126711;1087;101125;-81
2021/08/17 02:06:48;;;;;;;;;;;;;;;18.54;80.71;99150.75;126818;1089;103489;-81
2021/08/17 02:09:36;;;;;;;;;;;;;;;18.48;80.95;99162.63;126626;1090;102998;-81
2021/08/17 02:12:23;;;;;;;;;;;;;;;18.40;80.82;99155.34;126849;1087;102852;-81
2021/08/17 02:15:11;;;;;;;;;;;;;;;18.40;81.08;99151.87;126713;1087;101294;-81
2021/08/17 02:17:58;;;;;;;;;;;;;;;18.36;80.77;99147.81;126820;1089;102943;-81
2021/08/17 02:20:46;;;;;;;;;;;;;;;18.31;80.68;99147.33;126690;1088;102937;-81
2021/08/17 02:23:33;;;;;;;;;;;;;;;18.20;80.59;99139.45;126798;1090;102879;-81
2021/08/17 02:26:21;;;;;;;;;;;;;;;18.11;80.77;99133.11;126730;1087;103008;-81
2021/08/17 02:29:08;;;;;;;;;;;;;;;18.05;80.88;99134.45;126781;1090;102959;-81
2021/08/17 02:31:55;;;;;;;;;;;;;;;18.07;80.79;99131.69;126822;1090;102980;-81
2021/08/17 02:34:43;;;;;;;;;;;;;;;18.02;80.56;99133.87;126822;1088;101398;-81
2021/08/17 02:37:31;;;;;;;;;;;;;;;17.96;80.38;99137.84;126761;1089;102672;-81
2021/08/17 02:40:18;;;;;;;;;;;;;;;17.89;80.56;99149.83;126696;1088;102844;-81
2021/08/17 02:43:06;;;;;;;;;;;;;;;17.80;80.49;99156.69;126656;1090;104101;-81
2021/08/17 02:45:55;;;;;;;;;;;;;;;17.73;80.72;99159.91;126731;1088;102978;-82
2021/08/17 02:48:43;;;;;;;;;;;;;;;17.69;80.83;99169.03;126813;1090;102888;-81
2021/08/17 02:51:31;;;;;;;;;;;;;;;17.67;80.97;99178.83;126605;1089;102873;-81
2021/08/17 02:54:18;;;;;;;;;;;;;;;17.66;81.24;99185.06;126790;1088;103457;-81
2021/08/17 02:57:09;;;;;;;;;;;;;;;17.60;81.11;99183.75;126745;1089;102962;-81
2021/08/17 02:59:56;;;;;;;;;;;;;;;17.56;81.26;99192.84;126820;1088;102856;-81
2021/08/17 03:02:45;;;;;;;;;;;;;;;17.55;81.58;99193.80;126665;1086;102923;-81
2021/08/17 03:05:33;;;;;;;;;;;;;;;17.56;81.38;99197.27;126756;1090;102927;-81
2021/08/17 03:08:20;;;;;;;;;;;;;;;17.55;81.38;99199.06;126739;1089;103377;-81
2021/08/17 03:11:09;;;;;;;;;;;;;;;17.53;81.35;99199.19;126807;1090;102894;-81
2021/08/17 03:13:57;;;;;;;;;;;;;;;17.56;81.33;99192.00;126782;1089;102873;-81
2021/08/17 03:16:45;;;;;;;;;;;;;;;17.53;81.15;99190.44;126573;1090;103626;-81
2021/08/17 03:19:32;;;;;;;;;;;;;;;17.49;80.97;99189.84;126793;1090;102891;-81
2021/08/17 03:22:20;;;;;;;;;;;;;;;17.48;80.76;99182.06;126710;1090;102923;-81
2021/08/17 03:25:08;;;;;;;;;;;;;;;17.44;80.65;99176.19;126795;1087;102849;-81
2021/08/17 03:27:56;;;;;;;;;;;;;;;17.40;80.87;99182.63;126689;1090;102960;-80
2021/08/17 03:30:43;;;;;;;;;;;;;;;17.36;80.87;99178.56;126793;1089;102921;-81
2021/08/17 03:33:31;;;;;;;;;;;;;;;17.31;80.61;99170.18;126684;1090;101566;-81
2021/08/17 03:36:19;;;;;;;;;;;;;;;17.27;80.91;99179.28;126806;1090;102956;-81
2021/08/17 03:39:07;;;;;;;;;;;;;;;17.26;80.74;99179.41;126700;1087;102646;-81
2021/08/17 03:41:54;;;;;;;;;;;;;;;17.24;80.95;99166.34;126855;1087;101038;-81
2021/08/17 03:44:41;;;;;;;;;;;;;;;17.24;81.02;99165.51;126775;1089;102887;-81
2021/08/17 03:47:30;;;;;;;;;;;;;;;17.24;80.88;99174.25;126722;1088;102879;-81
2021/08/17 03:50:18;;;;;;;;;;;;;;;17.25;80.98;99173.30;126807;1089;102933;-81
2021/08/17 03:53:06;;;;;;;;;;;;;;;17.27;80.98;99163.47;126750;1090;102876;-81
2021/08/17 03:55:54;;;;;;;;;;;;;;;17.32;81.09;99171.02;126856;1090;102847;-81
2021/08/17 03:58:42;;;;;;;;;;;;;;;17.37;81.32;99169.70;126672;1090;102898;-81
2021/08/17 04:01:30;;;;;;;;;;;;;;;17.43;81.03;99173.67;126827;1088;102987;-81
2021/08/17 04:04:18;;;;;;;;;;;;;;;17.45;80.92;99169.96;126790;1090;102725;-81
2021/08/17 04:07:05;;;;;;;;;;;;;;;17.48;81.06;99177.63;126816;1087;102944;-81
2021/08/17 04:09:53;;;;;;;;;;;;;;;17.52;80.81;99179.06;126696;1087;102943;-81
2021/08/17 04:12:40;;;;;;;;;;;;;;;17.57;80.29;99175.22;126823;1088;101290;-81
2021/08/17 04:15:29;;;;;;;;;;;;;;;17.51;80.20;99174.75;126693;1088;102883;-81
2021/08/17 04:18:17;;;;;;;;;;;;;;;17.51;80.29;99180.02;126829;1087;103055;-81
2021/08/17 04:21:04;;;;;;;;;;;;;;;17.55;80.39;99192.95;126828;1090;101128;-81
2021/08/17 04:23:52;;;;;;;;;;;;;;;17.58;80.00;99192.72;126772;1089;101778;-80
2021/08/17 04:26:39;;;;;;;;;;;;;;;17.56;79.94;99207.81;126842;1090;102968;-81
2021/08/17 04:29:27;;;;;;;;;;;;;;;17.58;79.93;99224.35;126702;1088;102927;-81
2021/08/17 04:32:18;;;;;;;;;;;;;;;17.54;79.61;99234.30;126808;1087;102914;-81
2021/08/17 04:35:06;;;;;;;;;;;;;;;17.49;79.72;99247.84;126604;1090;102853;-81
2021/08/17 04:37:53;;;;;;;;;;;;;;;17.41;79.21;99244.93;126920;1087;103412;-80
2021/08/17 04:40:42;;;;;;;;;;;;;;;17.31;79.04;99238.70;126735;1087;102855;-81
2021/08/17 04:43:30;;;;;;;;;;;;;;;17.24;78.53;99250.67;126733;1089;102993;-81
2021/08/17 04:46:19;;;;;;;;;;;;;;;17.17;78.61;99260.81;126740;1089;102885;-81
2021/08/17 04:49:08;;;;;;;;;;;;;;;17.13;78.71;99266.44;126919;1087;102870;-81
2021/08/17 04:51:55;;;;;;;;;;;;;;;17.06;78.66;99267.86;126807;1089;102953;-81
2021/08/17 04:54:43;;;;;;;;;;;;;;;17.07;78.62;99251.09;126853;1087;102850;-81
2021/08/17 04:57:30;;;;;;;;;;;;;;;17.05;78.56;99255.61;126667;1090;103390;-80
2021/08/17 05:00:18;;;;;;;;;;;;;;;17.04;78.29;99264.47;126917;1087;102824;-80
2021/08/17 05:03:05;;;;;;;;;;;;;;;17.05;78.53;99277.52;126853;1087;102856;-80
2021/08/17 05:05:53;;;;;;;;;;;;;;;17.00;78.02;99281.46;126783;1088;102950;-81
2021/08/17 05:08:41;;;;;;;;;;;;;;;16.94;77.64;99284.56;126888;1089;102855;-80
2021/08/17 05:11:28;;;;;;;;;;;;;;;16.91;77.85;99288.27;126730;1089;102998;-80
2021/08/17 05:14:15;;;;;;;;;;;;;;;16.91;77.94;99304.06;126846;1087;103352;-80
2021/08/17 05:17:03;;;;;;;;;;;;;;;16.88;77.43;99302.50;126721;1090;102851;-80
2021/08/17 05:19:50;;;;;;;;;;;;;;;16.83;77.57;99309.88;126738;1087;102857;-80
2021/08/17 05:22:38;;;;;;;;;;;;;;;16.78;77.11;99314.64;126712;1090;102918;-80
2021/08/17 05:25:25;;;;;;;;;;;;;;;16.67;77.11;99317.19;126877;1088;103001;-81
2021/08/17 05:28:12;;;;;;;;;;;;;;;16.65;76.72;99316.44;126764;1087;103007;-80
2021/08/17 05:31:00;;;;;;;;;;;;;;;16.57;76.55;99322.27;126877;1087;103112;-80
2021/08/17 05:33:48;;;;;;;;;;;;;;;16.52;76.88;99326.19;126770;1087;102845;-80
2021/08/17 05:36:35;;;;;;;;;;;;;;;16.47;76.63;99337.02;126889;1089;102889;-80
2021/08/17 05:39:22;;;;;;;;;;;;;;;16.42;76.69;99344.41;126849;1090;102820;-80
2021/08/17 05:42:10;;;;;;;;;;;;;;;16.43;76.57;99342.61;126778;1090;102858;-80
2021/08/17 05:44:58;;;;;;;;;;;;;;;16.45;76.70;99338.08;126840;1087;102492;-80
2021/08/17 05:47:46;;;;;;;;;;;;;;;16.45;76.79;99341.55;126777;1089;101441;-80
2021/08/17 05:50:35;;;;;;;;;;;;;;;16.53;76.75;99341.02;126913;1090;102856;-80
2021/08/17 05:53:22;;;;;;;;;;;;;;;16.61;76.80;99350.05;126689;1090;102965;-80
2021/08/17 05:56:10;;;;;;;;;;;;;;;16.70;76.04;99361.77;126881;1090;102843;-80
2021/08/17 05:58:57;;;;;;;;;;;;;;;16.71;75.95;99359.97;126756;1089;102853;-80
2021/08/17 06:01:45;;;;;;;;;;;;;;;16.71;75.83;99365.23;126888;1090;101088;-81
2021/08/17 06:04:33;;;;;;;;;;;;;;;16.63;75.71;99365.73;126713;1089;103015;-81
2021/08/17 06:07:20;;;;;;;;;;;;;;;16.66;75.57;99362.88;126820;1090;103363;-80
2021/08/17 06:10:09;;;;;;;;;;;;;;;16.68;75.40;99365.42;126706;1087;102875;-80
2021/08/17 06:12:56;;;;;;;;;;;;;;;16.69;75.11;99369.73;126875;1089;103029;-80
2021/08/17 06:15:46;;;;;;;;;;;;;;;16.62;74.61;99369.31;126913;1089;102855;-80
2021/08/17 06:18:33;;;;;;;;;;;;;;;16.67;75.07;99380.38;126778;1090;103068;-80
2021/08/17 06:21:21;;;;;;;;;;;;;;;16.68;74.64;99376.80;126803;1088;102865;-80
2021/08/17 06:24:09;;;;;;;;;;;;;;;16.77;74.46;99380.59;126890;1088;102965;-79
2021/08/17 06:26:56;;;;;;;;;;;;;;;16.85;73.91;99381.70;126729;1089;102994;-80
2021/08/17 06:29:43;;;;;;;;;;;;;;;17.02;73.14;99379.66;126833;1090;102984;-80
2021/08/17 06:32:31;;;;;;;;;;;;;;;17.14;72.06;99373.50;126904;1088;101407;-80
2021/08/17 06:35:19;;;;;;;;;;;;;;;17.30;71.49;99374.06;126627;1090;102927;-79
2021/08/17 06:38:07;;;;;;;;;;;;;;;17.68;69.40;99375.67;126822;1089;102849;-79
2021/08/17 06:40:55;;;;;;;;;;;;;;;18.75;68.70;99370.03;126691;1088;102866;-79
2021/08/17 06:43:43;;;;;;;;;;;;;;;20.03;65.51;99378.81;126787;1090;102930;-79
2021/08/17 06:46:31;;;;;;;;;;;;;;;20.37;63.73;99384.70;126784;1088;102882;-81
2021/08/17 06:49:18;;;;;;;;;;;;;;;20.64;63.00;99391.25;126767;1088;103534;-80
2021/08/17 06:52:06;;;;;;;;;;;;;;;21.33;61.95;99376.23;126898;1089;103030;-79
2021/08/17 06:54:53;;;;;;;;;;;;;;;21.91;59.51;99380.69;126696;1090;102695;-79
2021/08/17 06:57:41;;;;;;;;;;;;;;;22.29;59.09;99375.31;126633;1088;102925;-80
2021/08/17 07:00:29;;;;;;;;;;;;;;;22.48;57.91;99382.37;126651;1090;102933;-80
2021/08/17 07:03:17;;;;;;;;;;;;;;;22.14;56.76;99383.88;126781;1089;102859;-80
2021/08/17 07:06:05;;;;;;;;;;;;;;;22.14;57.20;99378.56;126717;1089;103008;-80
2021/08/17 07:08:55;;;;;;;;;;;;;;;22.05;56.46;99382.91;126743;1090;102860;-80
2021/08/17 07:11:42;;;;;;;;;;;;;;;22.00;54.74;99391.27;126699;1090;102966;-80
2021/08/17 07:14:30;;;;;;;;;;;;;;;21.75;55.88;99399.84;126824;1089;101909;-80
2021/08/17 07:17:19;;;;;;;;;;;;;;;21.61;54.19;99395.80;126703;1090;103010;-80
2021/08/17 07:20:06;;;;;;;;;;;;;;;21.79;54.36;99397.73;126916;1090;102939;-80
2021/08/17 07:22:54;;;;;;;;;;;;;;;22.48;54.09;99390.34;126678;1088;102837;-80
2021/08/17 07:25:42;;;;;;;;;;;;;;;23.63;53.40;99401.30;126880;1088;102854;-79
2021/08/17 07:28:30;;;;;;;;;;;;;;;24.70;51.98;99395.70;126761;1089;103371;-79
2021/08/17 07:31:17;;;;;;;;;;;;;;;25.36;51.05;99381.59;126821;1089;102871;-79
2021/08/17 07:34:05;;;;;;;;;;;;;;;26.13;50.67;99384.78;126631;1089;102956;-79
2021/08/17 07:36:53;;;;;;;;;;;;;;;26.75;47.02;99382.27;126732;1090;102862;-80
2021/08/17 07:39:41;;;;;;;;;;;;;;;26.57;45.53;99381.67;126897;1089;103250;-79
2021/08/17 07:42:29;;;;;;;;;;;;;;;25.81;44.08;99373.12;126791;1089;102940;-79
2021/08/17 07:45:20;;;;;;;;;;;;;;;25.03;46.06;99399.36;126898;1089;102975;-80
2021/08/17 07:48:28;;;;;;;;;;;;;;;24.48;44.60;99385.61;126836;1090;103309;-80
2021/08/17 07:51:16;;;;;;;;;;;;;;;24.13;44.54;99391.87;126854;1090;102801;-80
2021/08/17 07:54:04;;;;;;;;;;;;;;;24.38;44.01;99391.05;126630;1090;102855;-80
2021/08/17 07:56:53;;;;;;;;;;;;;;;25.59;45.43;99381.77;126805;1088;102945;-79
2021/08/17 07:59:40;;;;;;;;;;;;;;;26.88;43.67;99376.36;126743;1088;101272;-80
2021/08/17 08:02:28;;;;;;;;;;;;;;;28.31;43.44;99382.88;126871;1088;102942;-79
2021/08/17 08:05:16;;;;;;;;;;;;;;;29.31;41.85;99385.83;126791;1089;101238;-80
2021/08/17 08:08:04;;;;;;;;;;;;;;;29.46;39.92;99384.78;126880;1088;102852;-80
2021/08/17 08:10:51;;;;;;;;;;;;;;;28.95;39.36;99392.03;126780;1090;103136;-80
2021/08/17 08:13:40;;;;;;;;;;;;;;;28.50;39.60;99396.56;126693;1090;102650;-80
2021/08/17 08:16:28;;;;;;;;;;;;;;;27.68;39.16;99403.70;126847;1089;102944;-80
2021/08/17 08:19:16;;;;;;;;;;;;;;;26.58;40.35;99402.09;126802;1090;102862;-80
2021/08/17 08:22:05;;;;;;;;;;;;;;;25.43;41.45;99411.96;126893;1090;102874;-80
2021/08/17 08:24:52;;;;;;;;;;;;;;;24.55;43.44;99430.13;126780;1090;102858;-81
2021/08/17 08:27:41;;;;;;;;;;;;;;;23.55;44.63;99438.47;126860;1090;102882;-80
2021/08/17 08:30:29;;;;;;;;;;;;;;;22.58;45.46;99448.75;126756;1089;102891;-80
2021/08/17 08:33:16;;;;;;;;;;;;;;;21.72;46.94;99447.87;126907;1090;102952;-80
2021/08/17 08:36:04;;;;;;;;;;;;;;;21.02;47.70;99452.36;126863;1087;103001;-79
2021/08/17 08:38:51;;;;;;;;;;;;;;;20.39;47.80;99459.56;126909;1089;102957;-79
2021/08/17 08:41:39;;;;;;;;;;;;;;;19.78;48.83;99463.88;126784;1090;102882;-79
2021/08/17 08:44:28;;;;;;;;;;;;;;;19.44;50.00;99465.77;126921;1088;102674;-79
2021/08/17 08:47:17;;;;;;;;;;;;;;;19.18;50.51;99460.76;126858;1090;102891;-80
2021/08/17 08:50:05;;;;;;;;;;;;;;;18.95;51.28;99472.33;126820;1090;102914;-80
2021/08/17 08:52:53;;;;;;;;;;;;;;;18.82;51.86;99471.60;126832;1087;102880;-79
2021/08/17 08:55:41;;;;;;;;;;;;;;;18.69;52.06;99472.58;126658;1089;102855;-80
2021/08/17 08:58:29;;;;;;;;;;;;;;;18.61;52.21;99480.21;126873;1087;102746;-79
2021/08/17 09:01:19;;;;;;;;;;;;;;;18.51;52.20;99476.62;126803;1087;102940;-80
2021/08/17 09:04:07;;;;;;;;;;;;;;;18.41;52.70;99483.55;126754;1089;103029;-80
2021/08/17 09:06:55;;;;;;;;;;;;;;;18.38;53.08;99487.27;126701;1088;101195;-80
2021/08/17 09:09:42;;;;;;;;;;;;;;;18.38;53.16;99478.51;126819;1088;102916;-80
2021/08/17 09:12:34;;;;;;;;;;;;;;;18.40;53.65;99487.99;126795;1088;102849;-81
2021/08/17 09:15:27;;;;;;;;;;;;;;;18.37;53.76;99479.47;126799;1090;102877;-81
2021/08/17 09:18:17;;;;;;;;;;;;;;;18.42;54.36;99485.23;126748;1089;101067;-81
2021/08/17 09:21:05;;;;;;;;;;;;;;;18.55;54.42;99485.98;126825;1087;102767;-81
2021/08/17 09:23:52;;;;;;;;;;;;;;;18.88;54.21;99487.84;126794;1087;102873;-81
2021/08/17 09:26:45;;;;;;;;;;;;;;;19.01;54.24;99492.97;126720;1087;102945;-81
2021/08/17 09:29:37;;;;;;;;;;;;;;;19.08;53.72;99494.19;126828;1087;102818;-81
2021/08/17 09:32:26;;;;;;;;;;;;;;;19.12;53.29;99500.91;126753;1087;102892;-81
2021/08/17 09:35:16;;;;;;;;;;;;;;;19.12;53.75;99495.63;126827;1087;101362;-81
2021/08/17 09:38:08;;;;;;;;;;;;;;;19.15;53.29;99492.73;126732;1087;102897;-81
2021/08/17 09:40:57;;;;;;;;;;;;;;;19.05;52.59;99498.88;126904;1088;102850;-81
2021/08/17 09:44:02;;;;;;;;;;;;;;;18.90;52.72;99493.00;126720;1088;102921;-81
2021/08/17 09:46:52;;;;;;;;;;;;;;;18.76;53.05;99499.35;126842;1087;104107;-81
2021/08/17 09:49:40;;;;;;;;;;;;;;;18.71;53.49;99512.92;126690;1089;102623;-81
2021/08/17 09:52:33;;;;;;;;;;;;;;;18.68;53.53;99515.80;126803;1089;103335;-81
2021/08/17 09:55:21;;;;;;;;;;;;;;;18.54;53.03;99521.27;126839;1090;102696;-81
2021/08/17 09:58:21;;;;;;;;;;;;;;;18.42;53.04;99519.55;126813;1087;102917;-81
2021/08/17 10:01:10;;;;;;;;;;;;;;;18.35;53.07;99516.55;126766;1087;102953;-81
2021/08/17 10:04:01;;;;;;;;;;;;;;;18.29;53.44;99526.71;126836;1089;103268;-81
2021/08/17 10:06:50;;;;;;;;;;;;;;;18.32;54.06;99518.59;126629;1090;102893;-81
2021/08/17 10:09:38;;;;;;;;;;;;;;;18.31;53.69;99532.71;126825;1089;102921;-81
2021/08/17 10:12:25;;;;;;;;;;;;;;;18.21;53.86;99539.66;126793;1088;102950;-81
2021/08/17 10:15:14;;;;;;;;;;;;;;;18.13;54.16;99545.48;126806;1090;103011;-81
2021/08/17 10:18:02;;;;;;;;;;;;;;;18.34;54.18;99541.27;126758;1087;101885;-81
2021/08/17 10:20:52;;;;;;;;;;;;;;;18.75;54.50;99532.02;126916;1090;102839;-81
2021/08/17 10:23:41;;;;;;;;;;;;;;;19.35;53.42;99522.86;126780;1087;102900;-81
2021/08/17 10:26:32;;;;;;;;;;;;;;;19.83;53.11;99518.09;126676;1087;103230;-81
2021/08/17 10:29:27;;;;;;;;;;;;;;;20.59;52.52;99520.63;126857;1089;100442;-81
2021/08/17 10:32:35;;;;;;;;;;;;;;;21.26;50.62;99528.94;126714;1087;102850;-81
2021/08/17 10:35:34;;;;;;;;;;;;;;;21.15;49.92;99539.59;126672;1089;102864;-81
2021/08/17 10:38:28;;;;;;;;;;;;;;;21.22;48.40;99531.97;126777;1089;102766;-80
2021/08/17 10:41:23;;;;;;;;;;;;;;;21.02;48.45;99544.31;126830;1087;102847;-81
2021/08/17 10:44:14;;;;;;;;;;;;;;;20.83;48.60;99518.55;126745;1087;102943;-81
2021/08/17 10:47:11;;;;;;;;;;;;;;;20.74;49.31;99535.23;126845;1090;102881;-81
2021/08/17 10:49:59;;;;;;;;;;;;;;;20.69;48.79;99534.79;126705;1087;102282;-81
2021/08/17 10:52:48;;;;;;;;;;;;;;;20.69;48.79;99548.88;126846;1087;102937;-81
2021/08/17 10:55:37;;;;;;;;;;;;;;;20.80;48.90;99548.78;126703;1088;101195;-81
2021/08/17 10:58:38;;;;;;;;;;;;;;;20.71;48.84;99541.64;126975;1089;102859;-81
2021/08/17 11:01:52;;;;;;;;;;;;;;;20.56;48.97;99560.64;126686;1087;104596;-81
2021/08/17 11:04:42;;;;;;;;;;;;;;;20.09;48.80;99574.17;126501;1090;102766;-81
2021/08/17 11:07:32;;;;;;;;;;;;;;;19.75;49.88;99564.66;126398;1090;103886;-81
2021/08/17 11:10:32;;;;;;;;;;;;;;;19.64;50.83;99578.77;126561;1089;102756;-81
2021/08/17 11:13:23;;;;;;;;;;;;;;;19.76;50.94;99572.49;126482;1090;102930;-81
2021/08/17 11:16:15;;;;;;;;;;;;;;;19.85;50.65;99566.44;126582;1088;101876;-81
2021/08/17 11:19:03;;;;;;;;;;;;;;;19.82;49.60;99573.80;126415;1089;102785;-81
2021/08/17 11:21:56;;;;;;;;;;;;;;;19.70;50.36;99572.97;126560;1088;102936;-81
2021/08/17 11:24:46;;;;;;;;;;;;;;;19.73;50.41;99585.10;126517;1090;103310;-81
2021/08/17 11:27:40;;;;;;;;;;;;;;;19.86;50.16;99575.22;126563;1090;103380;-81
2021/08/17 11:30:29;;;;;;;;;;;;;;;20.05;50.49;99582.50;126501;1090;102986;-80
2021/08/17 11:33:17;;;;;;;;;;;;;;;20.23;49.46;99578.34;126590;1090;102680;-80
2021/08/17 11:36:22;;;;;;;;;;;;;;;20.21;48.98;99574.98;126437;1090;103217;-80
2021/08/17 11:39:21;;;;;;;;;;;;;;;20.40;49.60;99582.23;126636;1090;102974;-80
2021/08/17 11:42:10;;;;;;;;;;;;;;;20.57;49.05;99594.11;126628;1089;103035;-80
2021/08/17 11:45:00;;;;;;;;;;;;;;;20.56;49.05;99600.38;126864;1088;102849;-80
2021/08/17 11:47:49;;;;;;;;;;;;;;;20.58;48.51;99593.13;126981;1087;102898;-80
2021/08/17 11:50:37;;;;;;;;;;;;;;;20.40;48.38;99603.42;126798;1089;103293;-80
2021/08/17 11:53:26;;;;;;;;;;;;;;;20.06;48.50;99608.00;126880;1089;101788;-80
2021/08/17 11:56:18;;;;;;;;;;;;;;;19.76;49.17;99601.59;126777;1089;102941;-80
2021/08/17 11:59:06;;;;;;;;;;;;;;;19.59;49.50;99612.69;126825;1089;102991;-80
2021/08/17 12:02:00;;;;;;;;;;;;;;;19.47;49.36;99617.09;126733;1088;103023;-80
2021/08/17 12:04:49;;;;;;;;;;;;;;;19.45;49.24;99604.96;126891;1089;102999;-80
2021/08/17 12:07:38;;;;;;;;;;;;;;;19.37;49.21;99599.42;126748;1090;102810;-80
2021/08/17 12:10:31;;;;;;;;;;;;;;;19.37;50.13;99594.97;126946;1089;102881;-80
2021/08/17 12:13:20;;;;;;;;;;;;;;;19.66;50.17;99599.80;126895;1087;103039;-80
2021/08/17 12:16:08;;;;;;;;;;;;;;;19.95;49.72;99589.53;126847;1087;102847;-80
2021/08/17 12:18:56;;;;;;;;;;;;;;;20.19;49.24;99593.64;126771;1087;102908;-80
2021/08/17 12:21:44;;;;;;;;;;;;;;;20.16;48.96;99582.47;126899;1087;102874;-80
2021/08/17 12:24:33;;;;;;;;;;;;;;;20.46;49.14;99589.69;126804;1087;103777;-80
2021/08/17 12:27:27;;;;;;;;;;;;;;;20.53;48.05;99590.88;126881;1087;103001;-80
2021/08/17 12:30:30;;;;;;;;;;;;;;;20.50;48.47;99585.84;126912;1090;102960;-80
2021/08/17 12:33:27;;;;;;;;;;;;;;;20.48;48.42;99577.19;126868;1090;102959;-80
2021/08/17 12:36:14;;;;;;;;;;;;;;;20.55;48.19;99598.70;126856;1089;102862;-80
2021/08/17 12:39:09;;;;;;;;;;;;;;;20.80;48.00;99590.34;126860;1088;102956;-80
2021/08/17 12:42:03;;;;;;;;;;;;;;;20.89;46.88;99580.79;126924;1089;101747;-79
2021/08/17 12:44:52;;;;;;;;;;;;;;;20.64;46.57;99597.91;126795;1088;102849;-80
2021/08/17 12:47:39;;;;;;;;;;;;;;;20.54;47.37;99586.42;126891;1090;103001;-80
2021/08/17 12:50:36;;;;;;;;;;;;;;;20.57;47.54;99580.86;126725;1087;102969;-80
2021/08/17 12:53:24;;;;;;;;;;;;;;;20.61;48.02;99587.58;126902;1087;102925;-80
2021/08/17 12:56:12;;;;;;;;;;;;;;;20.48;47.29;99587.78;126778;1088;102859;-80
2021/08/17 12:59:04;;;;;;;;;;;;;;;20.21;47.09;99583.77;126875;1089;102994;-80
2021/08/17 13:01:51;;;;;;;;;;;;;;;19.84;47.78;99593.87;126768;1090;102785;-80
2021/08/17 13:04:39;;;;;;;;;;;;;;;19.64;48.35;99596.44;126878;1090;102912;-79
2021/08/17 13:07:26;;;;;;;;;;;;;;;19.51;49.00;99607.11;126948;1088;102927;-81
2021/08/17 13:10:15;;;;;;;;;;;;;;;19.33;48.98;99598.83;126850;1089;103375;-79
2021/08/17 13:13:04;;;;;;;;;;;;;;;19.23;49.31;99608.45;126849;1090;102873;-81
2021/08/17 13:15:52;;;;;;;;;;;;;;;19.07;49.71;99606.16;126832;1089;102844;-80
2021/08/17 13:18:40;;;;;;;;;;;;;;;18.96;49.72;99601.69;127035;1089;101609;-80
2021/08/17 13:21:28;;;;;;;;;;;;;;;18.84;50.22;99607.06;126826;1087;102863;-79
2021/08/17 13:24:16;;;;;;;;;;;;;;;18.75;50.34;99619.19;127007;1087;101733;-80
2021/08/17 13:27:17;;;;;;;;;;;;;;;18.63;50.98;99605.09;126859;1090;102847;-81
2021/08/17 13:30:06;;;;;;;;;;;;;;;18.63;51.10;99602.45;126912;1089;102888;-80
2021/08/17 13:32:53;;;;;;;;;;;;;;;18.69;51.29;99599.38;126871;1090;102994;-81
2021/08/17 13:35:41;;;;;;;;;;;;;;;18.82;51.37;99603.70;126922;1087;102873;-80
2021/08/17 13:38:29;;;;;;;;;;;;;;;18.96;51.39;99611.42;127026;1087;102869;-80
2021/08/17 13:41:17;;;;;;;;;;;;;;;19.09;51.33;99596.30;126863;1090;102871;-80
2021/08/17 13:44:04;;;;;;;;;;;;;;;19.05;50.46;99594.03;127005;1090;102853;-80
2021/08/17 13:46:52;;;;;;;;;;;;;;;18.97;50.59;99613.09;126856;1090;102891;-80
2021/08/17 13:49:40;;;;;;;;;;;;;;;19.05;50.78;99609.89;126926;1087;102894;-80
2021/08/17 13:52:28;;;;;;;;;;;;;;;18.99;50.98;99601.45;126850;1089;103317;-80
2021/08/17 13:55:16;;;;;;;;;;;;;;;19.00;50.82;99612.86;126942;1090;103374;-80
2021/08/17 13:58:04;;;;;;;;;;;;;;;19.01;50.63;99611.90;126903;1087;103316;-80
2021/08/17 14:00:52;;;;;;;;;;;;;;;19.13;50.51;99618.89;127015;1089;102782;-80
2021/08/17 14:03:41;;;;;;;;;;;;;;;19.19;50.69;99628.98;126981;1090;102847;-80
2021/08/17 14:06:29;;;;;;;;;;;;;;;19.16;50.50;99626.58;126952;1088;102997;-80
2021/08/17 14:09:17;;;;;;;;;;;;;;;19.14;50.25;99635.59;126991;1087;102856;-80
2021/08/17 14:12:04;;;;;;;;;;;;;;;19.06;50.33;99638.84;126812;1090;103003;-80
2021/08/17 14:14:53;;;;;;;;;;;;;;;19.04;50.22;99645.20;126956;1090;102673;-80
2021/08/17 14:17:40;;;;;;;;;;;;;;;18.97;50.78;99645.65;126912;1089;102848;-80